Time;durP1;ratioP1;P1;durP2;ratioP2;P2;SDS_P1;SDS_P2;PMS_P1;PMS_P2;Temp;Humidity;BMP_temperature;BMP_pressure;BME280_temperature;BME280_humidity;BME280_pressure;Samples;Min_cycle;Max_cycle;Signal;HPM_P1;HPM_P2
2023/07/14 00:01:19;;;;;;;2.25;2.00;;;20.10;58.40;;;;;;5027994;28;20080;-80
2023/07/14 00:03:46;;;;;;;4.30;2.15;;;20.10;58.60;;;;;;5026223;28;20041;-80
2023/07/14 00:06:14;;;;;;;3.40;2.45;;;20.00;58.50;;;;;;5031724;28;20572;-80
2023/07/14 00:08:41;;;;;;;2.50;2.28;;;20.00;58.60;;;;;;5024645;28;20029;-80
2023/07/14 00:11:17;;;;;;;4.05;2.20;;;20.00;58.80;;;;;;5030361;28;20151;-80
2023/07/14 00:13:47;;;;;;;3.38;2.15;;;20.00;59.00;;;;;;5033725;28;20120;-81
2023/07/14 00:16:14;;;;;;;3.65;2.88;;;19.90;58.80;;;;;;5026226;28;20263;-80
2023/07/14 00:18:41;;;;;;;2.78;2.58;;;19.90;59.00;;;;;;5041168;28;20025;-81
2023/07/14 00:21:15;;;;;;;3.58;2.28;;;19.90;59.20;;;;;;5023137;28;20064;-80
2023/07/14 00:23:41;;;;;;;3.15;2.63;;;19.80;59.10;;;;;;5022610;28;20033;-80
2023/07/14 00:26:19;;;;;;;3.72;2.42;;;19.80;59.10;;;;;;5028559;28;20205;-80
2023/07/14 00:28:49;;;;;;;5.60;2.83;;;19.80;59.30;;;;;;5030213;28;20089;-80
2023/07/14 00:31:19;;;;;;;2.75;2.45;;;19.80;59.30;;;;;;5037454;28;20072;-80
2023/07/14 00:33:49;;;;;;;2.97;2.55;;;19.80;59.40;;;;;;5055832;28;20392;-80
2023/07/14 00:36:17;;;;;;;6.32;3.17;;;19.70;59.30;;;;;;5044450;28;20067;-81
2023/07/14 00:38:44;;;;;;;3.25;2.22;;;19.70;59.40;;;;;;5029017;28;20346;-80
2023/07/14 00:41:23;;;;;;;4.10;2.17;;;19.70;59.40;;;;;;5033520;28;20125;-80
2023/07/14 00:43:52;;;;;;;2.60;2.40;;;19.70;59.70;;;;;;5028237;28;20033;-79
2023/07/14 00:46:32;;;;;;;2.30;1.85;;;19.70;59.60;;;;;;5056639;28;20083;-80
2023/07/14 00:49:06;;;;;;;3.10;2.13;;;19.60;59.60;;;;;;5045752;28;20090;-80
2023/07/14 00:51:35;;;;;;;2.30;1.90;;;19.60;59.60;;;;;;5035957;28;20438;-80
2023/07/14 00:54:02;;;;;;;3.15;2.38;;;19.60;59.60;;;;;;5044032;28;20501;-80
2023/07/14 00:56:33;;;;;;;2.15;1.95;;;19.60;59.70;;;;;;5030846;28;20045;-80
2023/07/14 00:58:59;;;;;;;2.88;2.53;;;19.50;59.60;;;;;;5055393;28;20032;-78
2023/07/14 01:01:27;;;;;;;3.05;2.60;;;19.50;59.70;;;;;;5043567;28;20439;-79
2023/07/14 01:03:55;;;;;;;2.70;1.90;;;19.50;59.80;;;;;;5034109;28;20094;-79
2023/07/14 01:06:30;;;;;;;2.45;1.95;;;19.50;59.90;;;;;;5042920;28;20080;-79
2023/07/14 01:09:12;;;;;;;5.45;2.67;;;19.40;59.80;;;;;;5064330;28;20310;-79
2023/07/14 01:11:51;;;;;;;3.15;2.33;;;19.40;59.90;;;;;;5039155;28;20440;-81
2023/07/14 01:14:33;;;;;;;2.03;1.80;;;19.40;60.00;;;;;;5048600;28;20500;-78
2023/07/14 01:17:01;;;;;;;;;;;19.30;59.90;;;;;;5009946;28;20041;-77
2023/07/14 01:19:46;;;;;;;2.35;2.03;;;19.30;59.70;;;;;;5035027;28;20336;-77
2023/07/14 01:22:39;;;;;;;2.92;2.10;;;19.30;59.80;;;;;;5042320;28;20492;-77
2023/07/14 01:25:24;;;;;;;2.67;1.80;;;19.30;59.90;;;;;;5030976;28;20032;-77
2023/07/14 01:27:50;;;;;;;3.53;2.05;;;19.20;59.70;;;;;;5024594;28;20103;-78
2023/07/14 01:30:19;;;;;;;2.05;1.85;;;19.20;59.80;;;;;;5029958;28;20187;-78
2023/07/14 01:32:48;;;;;;;3.78;2.38;;;19.20;60.00;;;;;;5026604;28;20084;-79
2023/07/14 01:35:16;;;;;;;3.65;2.10;;;19.20;60.00;;;;;;5052690;28;20047;-80
2023/07/14 01:37:44;;;;;;;3.13;2.50;;;19.20;60.10;;;;;;5042452;28;20364;-80
2023/07/14 01:40:15;;;;;;;3.35;1.80;;;19.20;60.20;;;;;;5034022;28;20028;-80
2023/07/14 01:42:45;;;;;;;5.35;2.25;;;19.20;60.30;;;;;;5033420;28;20123;-80
2023/07/14 01:45:16;;;;;;;3.35;1.83;;;19.20;60.40;;;;;;5030366;28;20051;-80
2023/07/14 01:47:46;;;;;;;2.17;1.92;;;19.10;60.30;;;;;;5039127;28;20090;-80
2023/07/14 01:50:27;;;;;;;4.72;2.30;;;19.10;60.40;;;;;;5050860;28;20189;-81
2023/07/14 01:53:00;;;;;;;3.38;1.70;;;19.10;60.60;;;;;;5034080;28;20433;-80
2023/07/14 01:55:32;;;;;;;2.67;1.92;;;19.10;60.50;;;;;;5042706;28;20427;-80
2023/07/14 01:58:01;;;;;;;2.97;2.22;;;19.00;60.40;;;;;;5033844;28;20041;-81
2023/07/14 02:00:28;;;;;;;4.68;2.00;;;19.10;60.70;;;;;;5044691;28;20029;-80
2023/07/14 02:02:59;;;;;;;4.63;1.80;;;19.00;60.50;;;;;;5051778;28;20068;-81
2023/07/14 02:05:36;;;;;;;4.35;2.10;;;19.00;60.60;;;;;;5036173;28;20052;-81
2023/07/14 02:08:05;;;;;;;4.13;1.88;;;19.00;60.80;;;;;;5032309;28;20071;-81
2023/07/14 02:10:32;;;;;;;3.50;2.08;;;19.00;60.80;;;;;;5035109;28;20044;-81
2023/07/14 02:13:02;;;;;;;3.72;2.00;;;19.00;60.90;;;;;;5035705;28;20025;-81
2023/07/14 02:15:33;;;;;;;2.58;1.63;;;18.90;60.70;;;;;;5043456;28;20036;-81
2023/07/14 02:18:01;;;;;;;3.70;1.88;;;19.00;60.90;;;;;;5049950;28;20419;-81
2023/07/14 02:20:33;;;;;;;2.75;1.48;;;18.90;60.80;;;;;;5038064;28;20055;-81
2023/07/14 02:23:02;;;;;;;2.47;1.80;;;18.90;60.90;;;;;;5040333;28;20492;-81
2023/07/14 02:25:35;;;;;;;4.70;2.22;;;18.90;61.00;;;;;;5014141;28;20481;-81
2023/07/14 02:28:01;;;;;;;;;;;18.90;61.10;;;;;;5020719;28;20044;-81
2023/07/14 02:30:34;;;;;;;3.78;2.22;;;18.90;60.90;;;;;;5037702;28;19912;-81
2023/07/14 02:33:24;;;;;;;3.17;1.98;;;18.90;60.80;;;;;;5054118;28;20056;-81
2023/07/14 02:36:20;;;;;;;2.58;1.58;;;18.90;61.10;;;;;;5025650;28;20342;-81
2023/07/14 02:38:46;;;;;;;4.57;1.70;;;18.90;61.00;;;;;;5040898;28;20410;-81
2023/07/14 02:41:22;;;;;;;1.92;1.55;;;19.00;61.20;;;;;;5033395;28;20299;-81
2023/07/14 02:43:53;;;;;;;5.03;2.38;;;18.90;61.10;;;;;;5031409;28;20032;-79
2023/07/14 02:46:33;;;;;;;2.60;1.88;;;18.90;61.20;;;;;;5040745;28;20109;-78
2023/07/14 02:48:59;;;;;;;2.30;1.70;;;18.90;61.30;;;;;;5026945;28;20140;-79
2023/07/14 02:51:25;;;;;;;3.00;1.60;;;19.00;61.50;;;;;;5044492;28;20040;-79
2023/07/14 02:53:51;;;;;;;1.95;1.67;;;18.90;61.40;;;;;;5050542;28;20508;-79
2023/07/14 02:56:19;;;;;;;3.20;1.52;;;19.00;61.60;;;;;;5042804;28;20044;-80
2023/07/14 02:58:49;;;;;;;2.15;1.60;;;18.90;61.50;;;;;;5046548;28;20441;-80
2023/07/14 03:01:17;;;;;;;3.08;1.60;;;18.90;61.50;;;;;;5033189;28;20457;-79
2023/07/14 03:03:45;;;;;;;2.45;1.95;;;18.90;61.60;;;;;;5046491;28;20440;-79
2023/07/14 03:06:13;;;;;;;1.60;1.38;;;18.90;61.60;;;;;;5036901;28;20043;-79
2023/07/14 03:08:39;;;;;;;2.17;1.45;;;18.90;61.60;;;;;;5045587;28;20021;-79
2023/07/14 03:11:05;;;;;;;2.97;1.75;;;18.90;61.70;;;;;;5040694;28;20039;-81
2023/07/14 03:13:31;;;;;;;4.80;1.95;;;18.90;61.80;;;;;;5022244;28;20574;-79
2023/07/14 03:15:57;;;;;;;2.67;1.85;;;18.90;61.80;;;;;;5042779;28;20045;-79
2023/07/14 03:18:23;;;;;;;3.55;1.85;;;18.90;61.80;;;;;;5033497;28;20469;-78
2023/07/14 03:20:55;;;;;;;3.13;1.73;;;18.90;61.80;;;;;;5013342;28;20195;-80
2023/07/14 03:23:21;;;;;;;3.78;2.28;;;18.90;62.00;;;;;;5039697;28;20076;-79
2023/07/14 03:25:53;;;;;;;1.88;1.52;;;18.90;62.00;;;;;;5043351;28;20197;-78
2023/07/14 03:28:19;;;;;;;3.03;1.77;;;18.90;62.10;;;;;;5042705;28;20129;-78
2023/07/14 03:30:45;;;;;;;3.20;1.50;;;18.90;62.10;;;;;;5032201;28;20063;-78
2023/07/14 03:33:10;;;;;;;3.28;1.67;;;18.90;62.10;;;;;;5027438;28;20061;-79
2023/07/14 03:35:37;;;;;;;2.40;1.73;;;18.90;62.20;;;;;;5031355;28;20102;-79
2023/07/14 03:38:04;;;;;;;2.83;2.15;;;18.90;62.20;;;;;;5035900;28;20029;-78
2023/07/14 03:40:31;;;;;;;2.28;1.85;;;18.90;62.20;;;;;;5050617;28;20273;-78
2023/07/14 03:42:57;;;;;;;3.60;2.22;;;18.90;62.20;;;;;;5043936;28;20060;-78
2023/07/14 03:45:23;;;;;;;2.30;1.50;;;18.90;62.30;;;;;;5013129;28;20029;-78
2023/07/14 03:47:49;;;;;;;3.65;1.60;;;18.90;62.30;;;;;;5012099;28;20068;-78
2023/07/14 03:50:16;;;;;;;2.92;2.00;;;18.90;62.30;;;;;;5021894;28;20122;-79
2023/07/14 03:52:42;;;;;;;1.98;1.73;;;18.90;62.40;;;;;;5038800;28;20533;-78
2023/07/14 03:55:12;;;;;;;2.80;1.70;;;18.90;62.40;;;;;;5041507;28;20497;-79
2023/07/14 03:57:39;;;;;;;4.97;2.15;;;18.80;62.30;;;;;;5042472;28;20086;-79
2023/07/14 04:00:16;;;;;;;2.60;1.80;;;18.90;62.50;;;;;;5032477;28;20115;-78
2023/07/14 04:02:49;;;;;;;3.90;2.10;;;18.90;62.50;;;;;;5035347;28;20059;-78
2023/07/14 04:05:16;;;;;;;2.90;1.70;;;18.90;62.50;;;;;;5048272;28;20079;-78
2023/07/14 04:07:43;;;;;;;3.67;1.75;;;18.90;62.50;;;;;;5031527;28;20116;-78
2023/07/14 04:10:10;;;;;;;3.83;1.90;;;18.80;62.40;;;;;;5017707;28;20389;-78
2023/07/14 04:12:36;;;;;;;1.73;1.50;;;18.80;62.40;;;;;;5037732;28;20041;-78
2023/07/14 04:15:03;;;;;;;2.08;1.60;;;18.80;62.50;;;;;;5042688;28;20035;-79
2023/07/14 04:17:29;;;;;;;2.05;1.77;;;18.80;62.50;;;;;;5034160;28;20025;-78
2023/07/14 04:19:55;;;;;;;2.15;1.88;;;18.80;62.50;;;;;;5051128;28;20033;-78
2023/07/14 04:22:24;;;;;;;2.63;1.77;;;18.80;62.60;;;;;;5045610;28;20041;-78
2023/07/14 04:24:51;;;;;;;2.33;1.20;;;18.80;62.60;;;;;;5052063;28;20025;-79
2023/07/14 04:27:17;;;;;;;3.80;2.03;;;18.80;62.70;;;;;;5047414;28;20029;-79
2023/07/14 04:29:43;;;;;;;2.03;1.75;;;18.80;62.80;;;;;;5046189;28;20025;-79
2023/07/14 04:32:09;;;;;;;2.95;1.45;;;18.70;62.60;;;;;;5036749;28;20341;-78
2023/07/14 04:34:36;;;;;;;2.20;1.48;;;18.70;62.70;;;;;;5051702;28;20509;-79
2023/07/14 04:37:03;;;;;;;2.40;1.60;;;18.70;62.70;;;;;;5023773;28;20043;-81
2023/07/14 04:39:30;;;;;;;2.42;1.63;;;18.80;62.90;;;;;;5052291;28;20384;-81
2023/07/14 04:41:56;;;;;;;1.67;1.58;;;18.70;62.80;;;;;;5047161;28;20036;-80
2023/07/14 04:44:23;;;;;;;2.75;1.92;;;18.70;63.40;;;;;;5056055;28;20401;-80
2023/07/14 04:46:50;;;;;;;2.38;1.80;;;18.70;62.80;;;;;;5046674;28;20037;-81
2023/07/14 04:49:16;;;;;;;7.10;2.53;;;18.80;63.00;;;;;;5056188;28;20270;-80
2023/07/14 04:51:42;;;;;;;2.42;1.40;;;18.70;62.90;;;;;;5053866;28;20396;-80
2023/07/14 04:54:08;;;;;;;1.70;1.60;;;18.70;62.90;;;;;;5048349;28;20045;-81
2023/07/14 04:56:36;;;;;;;3.58;1.73;;;18.70;62.90;;;;;;5045647;28;20455;-79
2023/07/14 04:59:03;;;;;;;2.92;1.77;;;18.80;63.10;;;;;;5031970;28;20044;-81
2023/07/14 05:01:30;;;;;;;2.47;1.77;;;18.80;63.20;;;;;;5047845;28;20098;-80
2023/07/14 05:03:57;;;;;;;2.20;1.90;;;18.80;63.10;;;;;;5048511;28;20040;-80
2023/07/14 05:06:23;;;;;;;3.38;1.95;;;18.80;63.10;;;;;;5054858;28;20052;-81
2023/07/14 05:08:49;;;;;;;1.70;1.60;;;18.80;63.20;;;;;;5042490;28;20044;-81
2023/07/14 05:11:15;;;;;;;3.33;2.20;;;18.80;63.10;;;;;;5048842;28;20522;-79
2023/07/14 05:13:41;;;;;;;2.20;1.60;;;18.80;63.20;;;;;;5031526;28;20810;-82
2023/07/14 05:16:08;;;;;;;3.03;1.75;;;18.80;63.20;;;;;;5053462;28;20131;-81
2023/07/14 05:18:34;;;;;;;2.95;1.90;;;18.80;63.20;;;;;;5038137;28;20064;-81
2023/07/14 05:21:04;;;;;;;2.20;1.65;;;18.80;63.20;;;;;;5025457;28;20068;-81
2023/07/14 05:23:31;;;;;;;2.95;2.05;;;18.80;63.30;;;;;;5028344;28;20361;-80
2023/07/14 05:25:59;;;;;;;2.08;1.70;;;18.80;63.30;;;;;;5045979;28;20283;-81
2023/07/14 05:28:25;;;;;;;2.15;1.70;;;18.80;63.30;;;;;;5038629;28;20037;-81
2023/07/14 05:30:52;;;;;;;2.03;1.73;;;18.70;63.20;;;;;;5041481;28;20191;-81
2023/07/14 05:33:19;;;;;;;3.50;1.70;;;18.70;63.30;;;;;;5056984;28;20182;-81
2023/07/14 05:35:45;;;;;;;3.63;1.90;;;18.70;63.30;;;;;;5049657;28;20028;-81
2023/07/14 05:38:15;;;;;;;3.25;1.88;;;18.70;63.40;;;;;;5048869;28;20024;-81
2023/07/14 05:40:41;;;;;;;2.97;2.10;;;18.70;63.40;;;;;;5053121;28;20043;-82
2023/07/14 05:43:07;;;;;;;2.38;1.83;;;18.70;63.40;;;;;;5050457;28;20063;-80
2023/07/14 05:45:33;;;;;;;3.90;2.20;;;18.70;63.50;;;;;;5054397;28;20112;-80
2023/07/14 05:47:59;;;;;;;2.63;2.25;;;18.70;63.50;;;;;;5042112;28;20109;-83
2023/07/14 05:50:26;;;;;;;2.75;1.90;;;18.70;63.60;;;;;;5033362;28;20082;-84
2023/07/14 05:52:58;;;;;;;2.97;2.25;;;18.80;63.70;;;;;;5033081;28;20044;-81
2023/07/14 05:55:24;;;;;;;2.15;1.90;;;18.80;63.70;;;;;;5027449;28;20059;-80
2023/07/14 05:57:51;;;;;;;3.33;2.25;;;18.80;63.70;;;;;;5026044;28;20052;-82
2023/07/14 06:00:18;;;;;;;2.42;2.22;;;18.80;63.70;;;;;;5030912;28;20458;-80
2023/07/14 06:02:46;;;;;;;3.72;2.80;;;18.90;63.80;;;;;;5048074;28;20025;-81
2023/07/14 06:05:13;;;;;;;2.58;2.35;;;18.80;63.70;;;;;;5033864;28;20068;-79
2023/07/14 06:07:41;;;;;;;2.95;2.20;;;18.90;63.80;;;;;;5036428;28;20037;-81
2023/07/14 06:10:08;;;;;;;3.42;2.80;;;18.90;63.80;;;;;;5057001;28;20033;-81
2023/07/14 06:12:38;;;;;;;3.78;2.30;;;18.90;63.90;;;;;;5041347;28;20029;-82
2023/07/14 06:15:04;;;;;;;2.50;2.20;;;18.90;63.90;;;;;;5054816;28;20382;-82
2023/07/14 06:17:33;;;;;;;3.80;3.20;;;18.90;63.90;;;;;;5053231;28;20064;-83
2023/07/14 06:19:59;;;;;;;3.15;2.50;;;19.00;64.10;;;;;;5056519;28;20490;-80
2023/07/14 06:22:25;;;;;;;2.67;2.47;;;19.00;64.70;;;;;;5050474;28;20028;-80
2023/07/14 06:24:52;;;;;;;4.38;2.50;;;19.00;64.10;;;;;;5050525;28;20158;-80
2023/07/14 06:27:18;;;;;;;4.13;2.80;;;19.00;64.10;;;;;;5057930;28;20062;-79
2023/07/14 06:29:45;;;;;;;4.20;2.90;;;19.00;64.20;;;;;;5040238;28;20079;-79
2023/07/14 06:32:12;;;;;;;4.25;3.80;;;19.00;64.70;;;;;;5053574;28;20041;-80
2023/07/14 06:34:38;;;;;;;5.82;3.35;;;19.00;65.40;;;;;;5026338;28;20152;-78
2023/07/14 06:37:04;;;;;;;3.75;2.75;;;19.10;66.10;;;;;;5037396;28;20078;-79
2023/07/14 06:39:31;;;;;;;3.83;3.50;;;19.10;66.40;;;;;;5040103;28;20060;-79
2023/07/14 06:42:00;;;;;;;5.28;2.85;;;19.20;66.80;;;;;;5049205;28;20225;-79
2023/07/14 06:44:26;;;;;;;4.43;3.65;;;19.30;67.10;;;;;;5051351;28;20050;-80
2023/07/14 06:46:55;;;;;;;2.72;2.33;;;19.30;67.20;;;;;;5031033;28;20036;-80
2023/07/14 06:49:24;;;;;;;3.15;2.67;;;19.40;67.50;;;;;;5017719;28;20028;-80
2023/07/14 06:51:50;;;;;;;3.03;2.22;;;19.50;67.70;;;;;;5013370;28;20044;-80
2023/07/14 06:54:17;;;;;;;4.38;3.10;;;19.50;67.70;;;;;;5036621;28;20099;-81
2023/07/14 06:56:43;;;;;;;3.55;2.67;;;19.60;68.00;;;;;;5029048;28;20053;-80
2023/07/14 06:59:09;;;;;;;3.55;2.63;;;19.60;68.10;;;;;;5045421;28;20044;-81
2023/07/14 07:01:35;;;;;;;2.58;2.10;;;19.60;68.30;;;;;;5028581;28;20063;-81
2023/07/14 07:04:01;;;;;;;3.00;2.47;;;19.60;68.30;;;;;;5048756;28;20045;-80
2023/07/14 07:06:27;;;;;;;3.47;2.13;;;19.70;68.50;;;;;;5027805;28;20028;-79
2023/07/14 07:08:53;;;;;;;3.72;2.50;;;19.70;68.50;;;;;;5025363;28;20040;-79
2023/07/14 07:11:22;;;;;;;3.65;2.30;;;19.70;68.50;;;;;;5049067;28;20081;-79
2023/07/14 07:13:51;;;;;;;4.53;2.85;;;19.80;68.70;;;;;;5019138;28;20541;-83
2023/07/14 07:16:17;;;;;;;4.80;2.22;;;19.80;68.80;;;;;;5041151;28;20248;-83
2023/07/14 07:18:46;;;;;;;2.10;1.90;;;19.80;68.80;;;;;;5053973;28;20279;-83
2023/07/14 07:21:15;;;;;;;3.17;2.10;;;19.90;69.00;;;;;;5048944;28;20049;-83
2023/07/14 07:23:41;;;;;;;2.45;2.22;;;19.90;68.90;;;;;;5042863;28;20034;-83
2023/07/14 07:26:07;;;;;;;2.60;1.88;;;19.90;68.90;;;;;;5040981;28;20025;-85
2023/07/14 07:28:33;;;;;;;2.20;1.80;;;19.90;68.90;;;;;;5030255;28;20048;-81
2023/07/14 07:31:09;;;;;;;1.88;1.63;;;19.90;68.70;;;;;;5040968;28;20033;-84
2023/07/14 07:33:36;;;;;;;3.78;2.10;;;19.90;68.70;;;;;;5043597;28;20531;-83
2023/07/14 07:36:14;;;;;;;3.17;1.95;;;19.90;68.60;;;;;;5040926;28;20037;-83
2023/07/14 07:38:51;;;;;;;2.92;2.00;;;19.90;68.60;;;;;;5005671;28;20202;-83
2023/07/14 07:41:24;;;;;;;2.13;1.75;;;19.90;68.60;;;;;;5026971;28;20029;-84
2023/07/14 07:43:53;;;;;;;2.22;1.58;;;19.90;68.50;;;;;;5033487;28;20037;-83
2023/07/14 07:46:23;;;;;;;2.20;1.90;;;20.00;68.50;;;;;;5043121;28;20041;-84
2023/07/14 07:48:49;;;;;;;4.18;2.05;;;20.00;68.50;;;;;;5039908;28;20036;-84
2023/07/14 07:51:16;;;;;;;2.47;2.03;;;20.00;68.40;;;;;;5043777;28;20104;-84
2023/07/14 07:53:42;;;;;;;4.45;2.03;;;20.00;68.30;;;;;;5028061;28;20063;-81
2023/07/14 07:56:10;;;;;;;2.80;1.92;;;20.10;68.50;;;;;;5043988;28;20052;-83
2023/07/14 07:58:39;;;;;;;2.25;1.70;;;20.10;68.50;;;;;;5037297;28;20025;-83
2023/07/14 08:01:06;;;;;;;2.47;1.77;;;20.10;68.30;;;;;;5040398;28;20040;-84
2023/07/14 08:03:35;;;;;;;2.40;2.00;;;20.10;68.30;;;;;;5040602;28;20029;-84
2023/07/14 08:06:04;;;;;;;3.85;1.83;;;20.20;68.50;;;;;;5043827;28;20566;-84
2023/07/14 08:08:32;;;;;;;3.67;2.00;;;20.20;68.40;;;;;;5026483;28;20064;-84
2023/07/14 08:10:59;;;;;;;2.75;1.80;;;20.30;68.50;;;;;;5040766;28;20099;-90
2023/07/14 08:13:28;;;;;;;5.55;2.08;;;20.30;68.40;;;;;;5041935;28;20064;-84
2023/07/14 08:15:55;;;;;;;5.90;1.88;;;20.30;68.30;;;;;;5036640;28;20564;-86
2023/07/14 08:18:23;;;;;;;2.70;1.83;;;20.40;68.40;;;;;;5042602;28;20078;-82
2023/07/14 08:20:50;;;;;;;1.77;1.42;;;20.40;68.40;;;;;;5028668;28;20029;-80
2023/07/14 08:23:22;;;;;;;2.00;1.83;;;20.40;68.20;;;;;;5043434;28;20036;-80
2023/07/14 08:25:57;;;;;;;3.05;1.52;;;20.40;68.20;;;;;;5032465;28;20330;-82
2023/07/14 08:28:25;;;;;;;2.80;1.90;;;20.50;68.40;;;;;;5027739;28;20101;-82
2023/07/14 08:30:53;;;;;;;2.75;1.60;;;20.50;68.40;;;;;;5038649;28;20029;-83
2023/07/14 08:33:21;;;;;;;1.67;1.50;;;20.50;68.40;;;;;;5030298;28;20098;-82
2023/07/14 08:35:54;;;;;;;4.72;1.85;;;20.60;68.50;;;;;;5036094;28;20068;-82
2023/07/14 08:38:23;;;;;;;1.50;1.35;;;20.60;68.50;;;;;;5041923;28;20135;-82
2023/07/14 08:41:09;;;;;;;1.70;1.60;;;20.70;68.60;;;;;;5040535;28;20021;-83
2023/07/14 08:43:52;;;;;;;2.63;1.55;;;20.70;68.60;;;;;;5020916;28;20068;-82
2023/07/14 08:46:33;;;;;;;2.08;1.88;;;20.70;68.50;;;;;;5041606;28;20036;-83
2023/07/14 08:49:17;;;;;;;3.17;1.75;;;20.80;68.50;;;;;;5037416;28;20123;-83
2023/07/14 08:51:45;;;;;;;2.80;1.38;;;20.80;68.50;;;;;;5018553;28;20119;-82
2023/07/14 08:54:17;;;;;;;2.05;1.40;;;20.90;68.40;;;;;;5037757;28;20119;-85
2023/07/14 08:56:44;;;;;;;1.67;1.48;;;20.90;68.30;;;;;;5012627;28;20048;-85
2023/07/14 08:59:20;;;;;;;;;;;20.90;68.20;;;;;;5039428;28;20037;-85
2023/07/14 09:01:55;;;;;;;6.30;1.95;;;20.90;68.10;;;;;;5034879;28;19917;-90
2023/07/14 09:04:28;;;;;;;2.80;1.20;;;20.90;68.10;;;;;;5024802;28;20390;-86
2023/07/14 09:06:57;;;;;;;3.00;2.08;;;20.90;68.10;;;;;;5032295;28;20037;-87
2023/07/14 09:09:31;;;;;;;2.85;1.85;;;20.90;68.00;;;;;;5033296;28;20037;-92
2023/07/14 09:12:15;;;;;;;7.57;1.75;;;20.90;68.00;;;;;;5041358;28;20037;-83
2023/07/14 09:14:55;;;;;;;3.70;1.45;;;20.90;68.00;;;;;;5048340;28;20116;-83
2023/07/14 09:17:46;;;;;;;4.18;1.88;;;21.00;68.10;;;;;;5035676;28;20044;-81
2023/07/14 09:20:42;;;;;;;4.30;2.03;;;21.00;68.00;;;;;;5024457;28;20451;-84
2023/07/14 09:23:11;;;;;;;2.38;1.52;;;21.10;68.10;;;;;;5035011;28;20106;-85
2023/07/14 09:25:53;;;;;;;2.80;1.80;;;21.10;67.80;;;;;;5027238;28;20502;-80
2023/07/14 09:28:33;;;;;;;4.15;2.00;;;21.10;67.80;;;;;;5042786;28;20037;-88
2023/07/14 09:31:06;;;;;;;10.18;1.80;;;21.10;67.70;;;;;;5047852;28;20032;-88
2023/07/14 09:33:50;;;;;;;8.82;1.50;;;21.20;67.90;;;;;;5036053;28;20048;-88
2023/07/14 09:36:20;;;;;;;10.73;2.42;;;21.20;68.00;;;;;;5044395;28;20044;-82
2023/07/14 09:38:53;;;;;;;10.65;2.50;;;21.30;68.00;;;;;;5044365;28;20506;-89
2023/07/14 09:41:28;;;;;;;11.27;1.65;;;21.30;68.00;;;;;;5052337;28;20083;-86
2023/07/14 09:43:57;;;;;;;17.10;2.40;;;21.40;68.20;;;;;;5046780;28;20048;-89
2023/07/14 09:46:37;;;;;;;19.52;2.53;;;21.40;68.20;;;;;;5030923;28;20044;-85
2023/07/14 09:49:40;;;;;;;14.02;3.72;;;21.40;68.30;;;;;;5042704;28;20029;-84
2023/07/14 09:52:18;;;;;;;19.40;2.80;;;21.40;68.40;;;;;;5013050;28;20095;-90
2023/07/14 09:54:57;;;;;;;18.02;2.33;;;21.40;68.50;;;;;;5029705;28;20122;-87
2023/07/14 09:57:30;;;;;;;15.57;2.50;;;21.50;68.70;;;;;;5038937;28;20060;-85
2023/07/14 09:59:58;;;;;;;;;;;21.50;69.00;;;;;;5034661;28;20025;-84
2023/07/14 10:02:32;;;;;;;4.22;1.90;;;21.50;68.90;;;;;;5041745;28;19962;-84
2023/07/14 10:05:03;;;;;;;8.98;2.05;;;21.50;68.80;;;;;;5034782;28;20044;-87
2023/07/14 10:07:41;;;;;;;10.82;2.20;;;21.60;69.00;;;;;;5037238;28;20476;-90
2023/07/14 10:10:14;;;;;;;11.88;2.67;;;21.60;69.30;;;;;;5041310;28;20512;-88
2023/07/14 10:12:46;;;;;;;8.23;2.67;;;21.60;69.30;;;;;;5043300;28;20032;-88
2023/07/14 10:15:32;;;;;;;4.07;1.83;;;21.60;69.40;;;;;;5023850;28;20083;-88
2023/07/14 10:18:02;;;;;;;3.78;1.92;;;21.70;69.40;;;;;;5037324;28;20562;-89
2023/07/14 10:20:31;;;;;;;3.20;2.13;;;21.70;69.10;;;;;;5036056;28;20036;-90
2023/07/14 10:22:59;;;;;;;4.57;2.38;;;21.70;69.00;;;;;;5055079;28;20044;-86
2023/07/14 10:25:28;;;;;;;8.23;2.10;;;21.70;68.80;;;;;;5047187;28;20035;-86
2023/07/14 10:27:59;;;;;;;2.20;1.85;;;21.70;68.70;;;;;;5041186;28;20357;-86
2023/07/14 10:30:58;;;;;;;4.80;2.03;;;21.70;68.60;;;;;;5048105;28;20037;-86
2023/07/14 10:34:02;;;;;;;2.53;1.50;;;21.70;68.60;;;;;;5051141;28;20109;-93
2023/07/14 10:36:31;;;;;;;;;;;21.70;68.40;;;;;;5025434;28;20055;-92
2023/07/14 10:39:06;;;;;;;3.42;1.67;;;21.70;68.30;;;;;;5044114;28;19913;-90
2023/07/14 10:41:38;;;;;;;4.13;2.38;;;21.60;68.50;;;;;;5021679;28;20097;-93
2023/07/14 10:44:16;;;;;;;3.33;1.50;;;21.60;68.00;;;;;;5029885;28;20051;-93
2023/07/14 10:46:47;;;;;;;5.85;2.08;;;21.50;67.80;;;;;;5038953;28;20119;-90
2023/07/14 10:49:16;;;;;;;2.05;1.27;;;21.50;67.80;;;;;;5019770;28;20388;-90
2023/07/14 10:51:49;;;;;;;1.75;1.50;;;21.40;67.60;;;;;;5041249;28;20039;-92
2023/07/14 10:54:36;;;;;;;3.08;2.10;;;21.40;67.60;;;;;;5021322;28;20504;-91
2023/07/14 10:57:10;;;;;;;4.40;3.03;;;21.30;67.40;;;;;;5054532;28;20048;-90
2023/07/14 11:00:00;;;;;;;19.92;9.98;;;21.30;67.40;;;;;;5022310;28;20036;-86
2023/07/14 11:02:37;;;;;;;25.70;17.55;;;21.20;67.50;;;;;;5032689;28;20435;-88
2023/07/14 11:05:13;;;;;;;13.32;8.00;;;21.10;67.60;;;;;;5055023;28;20036;-92
2023/07/14 11:07:42;;;;;;;12.68;7.25;;;21.10;67.80;;;;;;5041731;28;20025;-86
2023/07/14 11:10:35;;;;;;;11.70;6.65;;;21.10;67.80;;;;;;5047055;28;20063;-85
2023/07/14 11:13:18;;;;;;;10.18;5.88;;;21.10;67.80;;;;;;5042105;28;20114;-85
2023/07/14 11:15:53;;;;;;;10.02;5.78;;;21.10;67.80;;;;;;5050824;28;20041;-93
2023/07/14 11:19:00;;;;;;;5.53;4.20;;;21.10;67.70;;;;;;5043525;28;20426;-93
2023/07/14 11:21:32;;;;;;;10.10;4.18;;;21.00;67.60;;;;;;5009244;28;20040;-91
2023/07/14 11:24:20;;;;;;;6.90;3.60;;;21.00;67.50;;;;;;5013308;28;20021;-89
2023/07/14 11:27:09;;;;;;;5.00;3.47;;;21.00;67.60;;;;;;5048512;28;20508;-88
2023/07/14 11:29:50;;;;;;;3.90;2.75;;;21.00;67.60;;;;;;5020194;28;20249;-89
2023/07/14 11:32:20;;;;;;;4.55;2.42;;;21.00;67.60;;;;;;5032147;28;20098;-89
2023/07/14 11:35:10;;;;;;;4.75;2.90;;;20.90;67.40;;;;;;5015307;28;20021;-89
2023/07/14 11:37:42;;;;;;;2.85;2.35;;;20.90;67.60;;;;;;5024532;28;20048;-93
2023/07/14 11:40:20;;;;;;;4.30;2.58;;;21.00;67.70;;;;;;5015158;28;20090;-92
2023/07/14 11:42:55;;;;;;;3.33;2.00;;;21.00;67.60;;;;;;5039483;28;20085;-88
2023/07/14 11:45:26;;;;;;;3.75;1.77;;;21.10;67.60;;;;;;5061007;28;20032;-89
2023/07/14 11:47:55;;;;;;;3.30;2.10;;;21.10;67.50;;;;;;5027951;28;20045;-92
2023/07/14 11:50:32;;;;;;;5.97;2.75;;;21.10;67.50;;;;;;5028716;28;20032;-87
2023/07/14 11:53:19;;;;;;;3.92;2.17;;;21.20;67.70;;;;;;5024041;28;20051;-86
2023/07/14 11:55:50;;;;;;;5.97;2.15;;;21.20;67.50;;;;;;5050513;28;20036;-92
2023/07/14 11:58:23;;;;;;;3.03;1.80;;;21.20;67.30;;;;;;5046039;28;20440;-89
2023/07/14 12:00:56;;;;;;;5.82;2.03;;;21.20;67.20;;;;;;5031925;28;20040;-82
2023/07/14 12:03:33;;;;;;;4.70;1.98;;;21.30;67.30;;;;;;5042625;28;20264;-83
2023/07/14 12:06:18;;;;;;;3.28;1.75;;;21.30;67.30;;;;;;5038966;28;20488;-84
2023/07/14 12:09:05;;;;;;;3.03;1.73;;;21.50;67.00;;;;;;5040836;28;20500;-87
2023/07/14 12:11:40;;;;;;;1.90;1.40;;;21.60;66.80;;;;;;5021706;28;20500;-87
2023/07/14 12:14:27;;;;;;;1.67;1.55;;;21.70;66.40;;;;;;5040701;28;20033;-88
2023/07/14 12:17:00;;;;;;;4.53;1.38;;;21.70;66.00;;;;;;5040096;28;20052;-91
2023/07/14 12:19:32;;;;;;;4.35;1.27;;;21.70;65.80;;;;;;5033699;28;20101;-89
2023/07/14 12:22:03;;;;;;;2.88;1.23;;;21.60;65.60;;;;;;5035815;28;20506;-90
2023/07/14 12:24:42;;;;;;;1.58;1.33;;;21.60;65.60;;;;;;5047200;28;20052;-89
2023/07/14 12:27:34;;;;;;;2.95;1.63;;;21.50;65.40;;;;;;5039492;28;20288;-89
2023/07/14 12:30:22;;;;;;;2.35;1.20;;;21.50;65.50;;;;;;5008678;28;20481;-89
2023/07/14 12:33:13;;;;;;;1.67;1.30;;;21.40;65.30;;;;;;5042588;28;20095;-86
2023/07/14 12:35:39;;;;;;;2.35;1.45;;;21.40;65.20;;;;;;5038279;28;20423;-90
2023/07/14 12:38:21;;;;;;;2.20;1.40;;;21.50;65.30;;;;;;5026693;28;20337;-88
2023/07/14 12:40:50;;;;;;;2.00;1.30;;;21.50;65.10;;;;;;5048174;28;20273;-89
2023/07/14 12:43:40;;;;;;;1.90;1.10;;;21.60;64.90;;;;;;5021709;28;20037;-93
2023/07/14 12:46:27;;;;;;;2.28;1.27;;;21.70;64.80;;;;;;5052559;28;20071;-96
2023/07/14 12:49:22;;;;;;;1.90;0.95;;;21.80;64.70;;;;;;5052911;28;20038;-87
2023/07/14 12:51:49;;;;;;;4.20;1.80;;;21.80;64.50;;;;;;5016870;28;20056;-84
2023/07/14 12:54:22;;;;;;;1.33;1.23;;;21.80;64.40;;;;;;5042071;28;20561;-86
2023/07/14 12:56:48;;;;;;;1.98;1.63;;;21.80;64.40;;;;;;5034944;28;20048;-88
2023/07/14 12:59:16;;;;;;;2.72;1.83;;;21.70;64.30;;;;;;5034791;28;20393;-87
2023/07/14 13:01:43;;;;;;;2.45;1.15;;;21.60;64.30;;;;;;5021799;28;20104;-87
2023/07/14 13:04:15;;;;;;;2.70;1.40;;;21.60;64.50;;;;;;5021877;28;20032;-88
2023/07/14 13:06:42;;;;;;;1.63;1.52;;;21.50;64.40;;;;;;5035537;28;20070;-89
2023/07/14 13:09:29;;;;;;;2.50;1.30;;;21.50;64.50;;;;;;5045128;28;20045;-89
2023/07/14 13:11:55;;;;;;;1.95;1.25;;;21.70;64.60;;;;;;5041089;28;20037;-84